sensor_id;sensor_type;location;lat;lon;timestamp;temperature;humidity
18717;DHT22;9487;50.892;6.906;2023-03-23T00:00:58;13.70;99.90
18717;DHT22;9487;50.892;6.906;2023-03-23T00:03:26;13.70;99.90
18717;DHT22;9487;50.892;6.906;2023-03-23T00:05:54;13.70;99.90
18717;DHT22;9487;50.892;6.906;2023-03-23T00:08:26;13.70;99.90
18717;DHT22;9487;50.892;6.906;2023-03-23T00:10:53;13.70;99.90
18717;DHT22;9487;50.892;6.906;2023-03-23T00:13:24;13.60;99.90
18717;DHT22;9487;50.892;6.906;2023-03-23T00:15:51;13.60;99.90
18717;DHT22;9487;50.892;6.906;2023-03-23T00:18:19;13.70;99.90
18717;DHT22;9487;50.892;6.906;2023-03-23T00:20:48;13.70;99.90
18717;DHT22;9487;50.892;6.906;2023-03-23T00:23:17;13.70;99.90
18717;DHT22;9487;50.892;6.906;2023-03-23T00:25:47;13.70;99.90
18717;DHT22;9487;50.892;6.906;2023-03-23T00:28:15;13.70;99.90
18717;DHT22;9487;50.892;6.906;2023-03-23T00:30:42;13.70;99.90
18717;DHT22;9487;50.892;6.906;2023-03-23T00:33:11;13.70;99.90
18717;DHT22;9487;50.892;6.906;2023-03-23T00:35:39;13.70;99.90
18717;DHT22;9487;50.892;6.906;2023-03-23T00:38:06;13.70;99.90
18717;DHT22;9487;50.892;6.906;2023-03-23T00:40:34;13.70;99.90
18717;DHT22;9487;50.892;6.906;2023-03-23T00:43:03;13.70;99.90
18717;DHT22;9487;50.892;6.906;2023-03-23T00:45:30;13.70;99.90
18717;DHT22;9487;50.892;6.906;2023-03-23T00:48:00;13.70;99.90
18717;DHT22;9487;50.892;6.906;2023-03-23T00:50:28;13.60;99.90
18717;DHT22;9487;50.892;6.906;2023-03-23T00:52:55;13.60;99.90
18717;DHT22;9487;50.892;6.906;2023-03-23T00:55:23;13.70;99.90
18717;DHT22;9487;50.892;6.906;2023-03-23T00:57:49;13.70;99.90
18717;DHT22;9487;50.892;6.906;2023-03-23T01:00:18;13.80;99.90
18717;DHT22;9487;50.892;6.906;2023-03-23T01:02:46;13.90;99.90
18717;DHT22;9487;50.892;6.906;2023-03-23T01:05:13;13.90;99.90
18717;DHT22;9487;50.892;6.906;2023-03-23T01:07:41;13.80;99.90
18717;DHT22;9487;50.892;6.906;2023-03-23T01:10:11;13.70;99.90
18717;DHT22;9487;50.892;6.906;2023-03-23T01:12:42;13.70;99.90
18717;DHT22;9487;50.892;6.906;2023-03-23T01:15:09;13.60;99.90
18717;DHT22;9487;50.892;6.906;2023-03-23T01:17:42;13.60;99.90
18717;DHT22;9487;50.892;6.906;2023-03-23T01:20:09;13.50;99.90
18717;DHT22;9487;50.892;6.906;2023-03-23T01:22:36;13.70;99.90
18717;DHT22;9487;50.892;6.906;2023-03-23T01:25:04;13.70;99.90
18717;DHT22;9487;50.892;6.906;2023-03-23T01:27:31;13.70;99.90
18717;DHT22;9487;50.892;6.906;2023-03-23T01:29:58;13.70;99.90
18717;DHT22;9487;50.892;6.906;2023-03-23T01:32:24;13.60;99.90
18717;DHT22;9487;50.892;6.906;2023-03-23T01:34:52;13.70;99.90
18717;DHT22;9487;50.892;6.906;2023-03-23T01:37:19;13.60;99.90
18717;DHT22;9487;50.892;6.906;2023-03-23T01:39:51;13.60;99.90
18717;DHT22;9487;50.892;6.906;2023-03-23T01:42:20;13.60;99.90
18717;DHT22;9487;50.892;6.906;2023-03-23T01:48:03;13.70;99.90
18717;DHT22;9487;50.892;6.906;2023-03-23T01:50:36;13.70;99.90
18717;DHT22;9487;50.892;6.906;2023-03-23T01:53:05;13.60;99.90
18717;DHT22;9487;50.892;6.906;2023-03-23T01:55:34;13.50;99.90
18717;DHT22;9487;50.892;6.906;2023-03-23T01:58:04;13.50;99.90
18717;DHT22;9487;50.892;6.906;2023-03-23T02:00:32;13.50;99.90
18717;DHT22;9487;50.892;6.906;2023-03-23T02:03:00;13.40;99.90
18717;DHT22;9487;50.892;6.906;2023-03-23T02:05:34;13.40;99.90
18717;DHT22;9487;50.892;6.906;2023-03-23T02:08:04;13.30;99.90
18717;DHT22;9487;50.892;6.906;2023-03-23T02:10:34;13.40;99.90
18717;DHT22;9487;50.892;6.906;2023-03-23T02:13:03;13.30;99.90
18717;DHT22;9487;50.892;6.906;2023-03-23T02:15:39;13.30;99.90
18717;DHT22;9487;50.892;6.906;2023-03-23T02:18:16;13.20;99.90
18717;DHT22;9487;50.892;6.906;2023-03-23T02:26:55;13.00;99.90
18717;DHT22;9487;50.892;6.906;2023-03-23T02:29:53;13.00;99.90
18717;DHT22;9487;50.892;6.906;2023-03-23T02:32:35;12.80;99.90
18717;DHT22;9487;50.892;6.906;2023-03-23T02:35:09;12.70;99.90
18717;DHT22;9487;50.892;6.906;2023-03-23T02:37:40;12.70;99.90
18717;DHT22;9487;50.892;6.906;2023-03-23T02:40:15;12.60;99.90
18717;DHT22;9487;50.892;6.906;2023-03-23T02:42:47;12.60;99.90
18717;DHT22;9487;50.892;6.906;2023-03-23T02:45:16;12.60;99.90
18717;DHT22;9487;50.892;6.906;2023-03-23T02:47:46;12.60;99.90
18717;DHT22;9487;50.892;6.906;2023-03-23T02:50:16;12.60;99.90
18717;DHT22;9487;50.892;6.906;2023-03-23T02:52:45;12.60;99.90
18717;DHT22;9487;50.892;6.906;2023-03-23T02:55:13;12.60;99.90
18717;DHT22;9487;50.892;6.906;2023-03-23T02:57:41;12.60;99.90
18717;DHT22;9487;50.892;6.906;2023-03-23T03:00:13;12.60;99.90
18717;DHT22;9487;50.892;6.906;2023-03-23T03:02:43;12.60;99.90
18717;DHT22;9487;50.892;6.906;2023-03-23T03:05:22;12.60;99.90
18717;DHT22;9487;50.892;6.906;2023-03-23T03:08:01;12.60;99.90
18717;DHT22;9487;50.892;6.906;2023-03-23T03:10:35;12.60;99.90
18717;DHT22;9487;50.892;6.906;2023-03-23T03:13:10;12.60;99.90
18717;DHT22;9487;50.892;6.906;2023-03-23T03:15:41;12.70;99.90
18717;DHT22;9487;50.892;6.906;2023-03-23T03:18:13;12.70;99.90
18717;DHT22;9487;50.892;6.906;2023-03-23T03:20:45;12.70;99.90
18717;DHT22;9487;50.892;6.906;2023-03-23T03:23:14;12.80;99.90
18717;DHT22;9487;50.892;6.906;2023-03-23T03:25:43;12.80;99.90
18717;DHT22;9487;50.892;6.906;2023-03-23T03:28:14;12.70;99.90
18717;DHT22;9487;50.892;6.906;2023-03-23T03:30:42;12.60;99.90
18717;DHT22;9487;50.892;6.906;2023-03-23T03:33:10;12.60;99.90
18717;DHT22;9487;50.892;6.906;2023-03-23T03:35:40;12.60;99.90
18717;DHT22;9487;50.892;6.906;2023-03-23T03:38:10;12.60;99.90
18717;DHT22;9487;50.892;6.906;2023-03-23T03:40:38;12.60;99.90
18717;DHT22;9487;50.892;6.906;2023-03-23T03:43:06;12.60;99.90
18717;DHT22;9487;50.892;6.906;2023-03-23T03:45:33;12.60;99.90
18717;DHT22;9487;50.892;6.906;2023-03-23T03:48:00;12.70;99.90
18717;DHT22;9487;50.892;6.906;2023-03-23T03:50:28;12.60;99.90
18717;DHT22;9487;50.892;6.906;2023-03-23T03:52:54;12.60;99.90
18717;DHT22;9487;50.892;6.906;2023-03-23T03:55:23;12.60;99.90
18717;DHT22;9487;50.892;6.906;2023-03-23T03:57:49;12.60;99.90
18717;DHT22;9487;50.892;6.906;2023-03-23T04:00:17;12.60;99.90
18717;DHT22;9487;50.892;6.906;2023-03-23T04:02:46;12.60;99.90
18717;DHT22;9487;50.892;6.906;2023-03-23T04:05:17;12.50;99.90
18717;DHT22;9487;50.892;6.906;2023-03-23T04:07:45;12.50;99.90
18717;DHT22;9487;50.892;6.906;2023-03-23T04:10:14;12.50;99.90
18717;DHT22;9487;50.892;6.906;2023-03-23T04:12:42;12.50;99.90
18717;DHT22;9487;50.892;6.906;2023-03-23T04:15:10;12.50;99.90
18717;DHT22;9487;50.892;6.906;2023-03-23T04:17:37;12.50;99.90
18717;DHT22;9487;50.892;6.906;2023-03-23T04:20:07;12.60;99.90
18717;DHT22;9487;50.892;6.906;2023-03-23T04:22:40;12.60;99.90
18717;DHT22;9487;50.892;6.906;2023-03-23T04:25:09;12.50;99.90
18717;DHT22;9487;50.892;6.906;2023-03-23T04:27:38;12.50;99.90
18717;DHT22;9487;50.892;6.906;2023-03-23T04:30:07;12.50;99.90
18717;DHT22;9487;50.892;6.906;2023-03-23T04:32:34;12.50;99.90
18717;DHT22;9487;50.892;6.906;2023-03-23T04:35:01;12.50;99.90
18717;DHT22;9487;50.892;6.906;2023-03-23T04:37:28;12.50;99.90
18717;DHT22;9487;50.892;6.906;2023-03-23T04:40:00;12.50;99.90
18717;DHT22;9487;50.892;6.906;2023-03-23T04:42:31;12.60;99.90
18717;DHT22;9487;50.892;6.906;2023-03-23T04:44:59;12.50;99.90
18717;DHT22;9487;50.892;6.906;2023-03-23T04:47:32;12.50;99.90
18717;DHT22;9487;50.892;6.906;2023-03-23T04:49:59;12.60;99.90
18717;DHT22;9487;50.892;6.906;2023-03-23T04:52:26;12.50;99.90
18717;DHT22;9487;50.892;6.906;2023-03-23T04:54:53;12.50;99.90
18717;DHT22;9487;50.892;6.906;2023-03-23T04:57:21;12.50;99.90
18717;DHT22;9487;50.892;6.906;2023-03-23T04:59:47;12.50;99.90
18717;DHT22;9487;50.892;6.906;2023-03-23T05:02:14;12.50;99.90
18717;DHT22;9487;50.892;6.906;2023-03-23T05:04:44;12.50;99.90
18717;DHT22;9487;50.892;6.906;2023-03-23T05:07:11;12.50;99.90
18717;DHT22;9487;50.892;6.906;2023-03-23T05:09:37;12.40;99.90
18717;DHT22;9487;50.892;6.906;2023-03-23T05:12:05;12.40;99.90
18717;DHT22;9487;50.892;6.906;2023-03-23T05:14:32;12.40;99.90
18717;DHT22;9487;50.892;6.906;2023-03-23T05:17:00;12.40;99.90
18717;DHT22;9487;50.892;6.906;2023-03-23T05:19:27;12.40;99.90
18717;DHT22;9487;50.892;6.906;2023-03-23T05:21:56;12.40;99.90
18717;DHT22;9487;50.892;6.906;2023-03-23T05:24:28;12.30;99.90
18717;DHT22;9487;50.892;6.906;2023-03-23T05:26:56;12.40;99.90
18717;DHT22;9487;50.892;6.906;2023-03-23T05:29:23;12.40;99.90
18717;DHT22;9487;50.892;6.906;2023-03-23T05:31:51;12.40;99.90
18717;DHT22;9487;50.892;6.906;2023-03-23T05:34:18;12.40;99.90
18717;DHT22;9487;50.892;6.906;2023-03-23T05:36:45;12.40;99.90
18717;DHT22;9487;50.892;6.906;2023-03-23T05:39:14;12.50;99.90
18717;DHT22;9487;50.892;6.906;2023-03-23T05:41:42;12.50;99.90
18717;DHT22;9487;50.892;6.906;2023-03-23T05:44:09;12.60;99.90
18717;DHT22;9487;50.892;6.906;2023-03-23T05:46:38;12.60;99.90
18717;DHT22;9487;50.892;6.906;2023-03-23T05:49:05;12.70;99.90
18717;DHT22;9487;50.892;6.906;2023-03-23T05:51:32;12.70;99.90
18717;DHT22;9487;50.892;6.906;2023-03-23T05:54:00;12.60;99.90
18717;DHT22;9487;50.892;6.906;2023-03-23T05:56:28;12.70;99.90
18717;DHT22;9487;50.892;6.906;2023-03-23T05:58:56;12.70;99.90
18717;DHT22;9487;50.892;6.906;2023-03-23T06:01:23;12.70;99.90
18717;DHT22;9487;50.892;6.906;2023-03-23T06:03:50;12.60;99.90
18717;DHT22;9487;50.892;6.906;2023-03-23T06:06:19;12.60;99.90
18717;DHT22;9487;50.892;6.906;2023-03-23T06:08:46;12.70;99.90
18717;DHT22;9487;50.892;6.906;2023-03-23T06:11:13;12.90;99.90
18717;DHT22;9487;50.892;6.906;2023-03-23T06:13:42;12.90;99.90
18717;DHT22;9487;50.892;6.906;2023-03-23T06:16:09;12.90;99.90
18717;DHT22;9487;50.892;6.906;2023-03-23T06:18:36;13.00;99.90
18717;DHT22;9487;50.892;6.906;2023-03-23T06:21:06;13.00;99.90
18717;DHT22;9487;50.892;6.906;2023-03-23T06:23:33;13.00;99.90
18717;DHT22;9487;50.892;6.906;2023-03-23T06:26:02;13.10;99.90
18717;DHT22;9487;50.892;6.906;2023-03-23T06:28:31;13.10;99.90
18717;DHT22;9487;50.892;6.906;2023-03-23T06:31:00;13.20;99.90
18717;DHT22;9487;50.892;6.906;2023-03-23T06:33:27;13.20;99.90
18717;DHT22;9487;50.892;6.906;2023-03-23T06:35:54;13.20;99.90
18717;DHT22;9487;50.892;6.906;2023-03-23T06:38:21;13.20;99.90
18717;DHT22;9487;50.892;6.906;2023-03-23T06:40:48;13.30;99.90
18717;DHT22;9487;50.892;6.906;2023-03-23T06:43:17;13.30;99.90
18717;DHT22;9487;50.892;6.906;2023-03-23T06:45:44;13.30;99.90
18717;DHT22;9487;50.892;6.906;2023-03-23T06:48:12;13.30;99.90
18717;DHT22;9487;50.892;6.906;2023-03-23T06:50:42;13.30;99.90
18717;DHT22;9487;50.892;6.906;2023-03-23T06:53:10;13.30;99.90
18717;DHT22;9487;50.892;6.906;2023-03-23T06:55:37;13.40;99.90
18717;DHT22;9487;50.892;6.906;2023-03-23T06:58:04;13.30;99.90
18717;DHT22;9487;50.892;6.906;2023-03-23T07:00:31;13.30;99.90
18717;DHT22;9487;50.892;6.906;2023-03-23T07:02:58;13.30;99.90
18717;DHT22;9487;50.892;6.906;2023-03-23T07:05:26;13.40;99.90
18717;DHT22;9487;50.892;6.906;2023-03-23T07:07:53;13.40;99.90
18717;DHT22;9487;50.892;6.906;2023-03-23T07:10:20;13.40;99.90
18717;DHT22;9487;50.892;6.906;2023-03-23T07:12:47;13.50;99.90
18717;DHT22;9487;50.892;6.906;2023-03-23T07:15:14;13.50;99.90
18717;DHT22;9487;50.892;6.906;2023-03-23T07:17:41;13.50;99.90
18717;DHT22;9487;50.892;6.906;2023-03-23T07:20:09;13.50;99.90
18717;DHT22;9487;50.892;6.906;2023-03-23T07:22:37;13.50;99.90
18717;DHT22;9487;50.892;6.906;2023-03-23T07:25:05;13.50;99.90
18717;DHT22;9487;50.892;6.906;2023-03-23T07:27:32;13.60;99.90
18717;DHT22;9487;50.892;6.906;2023-03-23T07:29:59;13.60;99.90
18717;DHT22;9487;50.892;6.906;2023-03-23T07:32:26;13.70;99.90
18717;DHT22;9487;50.892;6.906;2023-03-23T07:34:53;13.80;99.90
18717;DHT22;9487;50.892;6.906;2023-03-23T07:37:21;13.80;99.90
18717;DHT22;9487;50.892;6.906;2023-03-23T07:39:50;13.80;99.90
18717;DHT22;9487;50.892;6.906;2023-03-23T07:42:17;13.80;99.90
18717;DHT22;9487;50.892;6.906;2023-03-23T07:44:44;13.90;99.90
18717;DHT22;9487;50.892;6.906;2023-03-23T07:47:11;14.00;99.90
18717;DHT22;9487;50.892;6.906;2023-03-23T07:49:38;14.00;99.90
18717;DHT22;9487;50.892;6.906;2023-03-23T07:52:05;14.00;99.90
18717;DHT22;9487;50.892;6.906;2023-03-23T07:54:32;14.00;99.90
18717;DHT22;9487;50.892;6.906;2023-03-23T07:57:00;14.00;99.90
18717;DHT22;9487;50.892;6.906;2023-03-23T07:59:27;13.90;99.90
18717;DHT22;9487;50.892;6.906;2023-03-23T08:01:53;14.00;99.90
18717;DHT22;9487;50.892;6.906;2023-03-23T08:04:20;13.90;99.90
18717;DHT22;9487;50.892;6.906;2023-03-23T08:06:47;14.00;99.90
18717;DHT22;9487;50.892;6.906;2023-03-23T08:09:15;14.00;99.90
18717;DHT22;9487;50.892;6.906;2023-03-23T08:11:42;14.10;99.90
18717;DHT22;9487;50.892;6.906;2023-03-23T08:14:10;14.10;99.90
18717;DHT22;9487;50.892;6.906;2023-03-23T08:16:37;14.10;99.90
18717;DHT22;9487;50.892;6.906;2023-03-23T08:19:04;14.10;99.90
18717;DHT22;9487;50.892;6.906;2023-03-23T08:21:31;14.10;99.90
18717;DHT22;9487;50.892;6.906;2023-03-23T08:23:58;14.20;99.90
18717;DHT22;9487;50.892;6.906;2023-03-23T08:26:25;14.30;99.90
18717;DHT22;9487;50.892;6.906;2023-03-23T08:28:52;14.30;99.90
18717;DHT22;9487;50.892;6.906;2023-03-23T08:31:21;14.30;99.90
18717;DHT22;9487;50.892;6.906;2023-03-23T08:33:48;14.30;99.90
18717;DHT22;9487;50.892;6.906;2023-03-23T08:36:14;14.40;99.90
18717;DHT22;9487;50.892;6.906;2023-03-23T08:38:41;14.40;99.90
18717;DHT22;9487;50.892;6.906;2023-03-23T08:41:09;14.40;99.90
18717;DHT22;9487;50.892;6.906;2023-03-23T08:43:37;14.40;99.90
18717;DHT22;9487;50.892;6.906;2023-03-23T08:46:05;14.50;99.90
18717;DHT22;9487;50.892;6.906;2023-03-23T08:48:36;14.50;99.90
18717;DHT22;9487;50.892;6.906;2023-03-23T08:51:04;14.50;99.90
18717;DHT22;9487;50.892;6.906;2023-03-23T08:53:32;14.50;99.90
18717;DHT22;9487;50.892;6.906;2023-03-23T08:56:04;14.60;99.90
18717;DHT22;9487;50.892;6.906;2023-03-23T08:58:30;14.60;99.90
18717;DHT22;9487;50.892;6.906;2023-03-23T09:00:57;14.70;99.90
18717;DHT22;9487;50.892;6.906;2023-03-23T09:03:25;14.60;99.90
18717;DHT22;9487;50.892;6.906;2023-03-23T09:05:53;14.60;99.90
18717;DHT22;9487;50.892;6.906;2023-03-23T09:08:20;14.70;99.90
18717;DHT22;9487;50.892;6.906;2023-03-23T09:10:47;14.70;99.90
18717;DHT22;9487;50.892;6.906;2023-03-23T09:13:15;14.80;99.90
18717;DHT22;9487;50.892;6.906;2023-03-23T09:15:42;14.80;99.90
18717;DHT22;9487;50.892;6.906;2023-03-23T09:18:09;14.90;99.90
18717;DHT22;9487;50.892;6.906;2023-03-23T09:20:36;15.00;99.90
18717;DHT22;9487;50.892;6.906;2023-03-23T09:23:05;15.00;99.90
18717;DHT22;9487;50.892;6.906;2023-03-23T09:25:32;15.00;99.90
18717;DHT22;9487;50.892;6.906;2023-03-23T09:27:59;15.10;99.90
18717;DHT22;9487;50.892;6.906;2023-03-23T09:30:28;15.10;99.90
18717;DHT22;9487;50.892;6.906;2023-03-23T09:32:56;15.20;99.90
18717;DHT22;9487;50.892;6.906;2023-03-23T09:35:26;15.10;99.90
18717;DHT22;9487;50.892;6.906;2023-03-23T09:37:54;15.10;99.90
18717;DHT22;9487;50.892;6.906;2023-03-23T09:40:24;15.10;99.90
18717;DHT22;9487;50.892;6.906;2023-03-23T09:43:04;15.10;99.90
18717;DHT22;9487;50.892;6.906;2023-03-23T09:45:39;15.10;99.90
18717;DHT22;9487;50.892;6.906;2023-03-23T09:48:23;15.10;99.90
18717;DHT22;9487;50.892;6.906;2023-03-23T09:50:58;15.20;99.90
18717;DHT22;9487;50.892;6.906;2023-03-23T09:53:30;15.30;99.90
18717;DHT22;9487;50.892;6.906;2023-03-23T09:56:02;15.20;99.90
18717;DHT22;9487;50.892;6.906;2023-03-23T09:58:37;15.20;99.90
18717;DHT22;9487;50.892;6.906;2023-03-23T10:01:08;15.00;99.90
18717;DHT22;9487;50.892;6.906;2023-03-23T10:03:43;15.00;99.90
18717;DHT22;9487;50.892;6.906;2023-03-23T10:06:11;14.90;99.90
18717;DHT22;9487;50.892;6.906;2023-03-23T10:08:43;14.90;99.90
18717;DHT22;9487;50.892;6.906;2023-03-23T10:11:16;14.90;99.90
18717;DHT22;9487;50.892;6.906;2023-03-23T10:13:59;14.90;99.90
18717;DHT22;9487;50.892;6.906;2023-03-23T10:16:31;15.00;99.90
18717;DHT22;9487;50.892;6.906;2023-03-23T10:19:02;15.10;99.90
18717;DHT22;9487;50.892;6.906;2023-03-23T10:21:30;15.20;99.90
18717;DHT22;9487;50.892;6.906;2023-03-23T10:23:59;15.30;99.90
18717;DHT22;9487;50.892;6.906;2023-03-23T10:26:44;15.20;99.90
18717;DHT22;9487;50.892;6.906;2023-03-23T10:29:19;15.20;99.90
18717;DHT22;9487;50.892;6.906;2023-03-23T10:31:51;15.10;99.90
18717;DHT22;9487;50.892;6.906;2023-03-23T10:34:23;15.00;99.90
18717;DHT22;9487;50.892;6.906;2023-03-23T10:36:56;15.00;99.90
18717;DHT22;9487;50.892;6.906;2023-03-23T10:39:29;15.00;99.90
18717;DHT22;9487;50.892;6.906;2023-03-23T10:42:00;14.90;99.90
18717;DHT22;9487;50.892;6.906;2023-03-23T10:44:33;14.90;99.90
18717;DHT22;9487;50.892;6.906;2023-03-23T10:47:02;14.90;99.90
18717;DHT22;9487;50.892;6.906;2023-03-23T10:49:34;14.90;99.90
18717;DHT22;9487;50.892;6.906;2023-03-23T10:52:06;14.80;99.90
18717;DHT22;9487;50.892;6.906;2023-03-23T10:54:37;15.00;99.90
18717;DHT22;9487;50.892;6.906;2023-03-23T10:57:21;14.80;99.90
18717;DHT22;9487;50.892;6.906;2023-03-23T10:59:49;14.90;99.90
18717;DHT22;9487;50.892;6.906;2023-03-23T11:02:18;14.90;99.90
18717;DHT22;9487;50.892;6.906;2023-03-23T11:04:53;15.00;99.90
18717;DHT22;9487;50.892;6.906;2023-03-23T11:07:28;15.10;99.90
18717;DHT22;9487;50.892;6.906;2023-03-23T11:09:57;15.10;99.90
18717;DHT22;9487;50.892;6.906;2023-03-23T11:12:25;15.20;99.90
18717;DHT22;9487;50.892;6.906;2023-03-23T11:15:04;15.30;99.90
18717;DHT22;9487;50.892;6.906;2023-03-23T11:17:36;15.20;99.90
18717;DHT22;9487;50.892;6.906;2023-03-23T11:20:10;15.20;99.90
18717;DHT22;9487;50.892;6.906;2023-03-23T11:22:37;15.20;99.90
18717;DHT22;9487;50.892;6.906;2023-03-23T11:25:05;15.20;99.90
18717;DHT22;9487;50.892;6.906;2023-03-23T11:27:34;15.30;99.90
18717;DHT22;9487;50.892;6.906;2023-03-23T11:30:09;15.40;99.90
18717;DHT22;9487;50.892;6.906;2023-03-23T11:32:37;15.40;99.90
18717;DHT22;9487;50.892;6.906;2023-03-23T11:35:05;15.50;99.90
18717;DHT22;9487;50.892;6.906;2023-03-23T11:37:35;15.40;99.90
18717;DHT22;9487;50.892;6.906;2023-03-23T11:40:15;15.40;99.90
18717;DHT22;9487;50.892;6.906;2023-03-23T11:42:47;15.30;99.90
18717;DHT22;9487;50.892;6.906;2023-03-23T11:45:18;15.30;99.90
18717;DHT22;9487;50.892;6.906;2023-03-23T11:47:54;15.20;99.90
18717;DHT22;9487;50.892;6.906;2023-03-23T11:50:25;15.20;99.90
18717;DHT22;9487;50.892;6.906;2023-03-23T11:53:00;15.20;99.90
18717;DHT22;9487;50.892;6.906;2023-03-23T11:55:34;15.20;99.90
18717;DHT22;9487;50.892;6.906;2023-03-23T11:58:17;15.10;99.90
18717;DHT22;9487;50.892;6.906;2023-03-23T12:00:47;15.20;99.90
18717;DHT22;9487;50.892;6.906;2023-03-23T12:03:35;15.30;99.90
18717;DHT22;9487;50.892;6.906;2023-03-23T12:06:07;15.20;99.90
18717;DHT22;9487;50.892;6.906;2023-03-23T12:08:51;15.20;99.90
18717;DHT22;9487;50.892;6.906;2023-03-23T12:11:27;15.10;99.90
18717;DHT22;9487;50.892;6.906;2023-03-23T12:14:06;15.20;99.90
18717;DHT22;9487;50.892;6.906;2023-03-23T12:16:47;15.30;99.90
18717;DHT22;9487;50.892;6.906;2023-03-23T12:19:21;15.40;99.90
18717;DHT22;9487;50.892;6.906;2023-03-23T12:21:55;15.40;99.90
18717;DHT22;9487;50.892;6.906;2023-03-23T12:24:36;15.70;99.90
18717;DHT22;9487;50.892;6.906;2023-03-23T12:27:11;15.90;99.90
18717;DHT22;9487;50.892;6.906;2023-03-23T12:29:57;16.00;99.90
18717;DHT22;9487;50.892;6.906;2023-03-23T12:32:52;16.00;99.90
18717;DHT22;9487;50.892;6.906;2023-03-23T12:35:32;15.90;99.90
18717;DHT22;9487;50.892;6.906;2023-03-23T12:38:16;15.70;99.90
18717;DHT22;9487;50.892;6.906;2023-03-23T12:40:57;15.70;99.90
18717;DHT22;9487;50.892;6.906;2023-03-23T12:43:33;15.60;99.90
18717;DHT22;9487;50.892;6.906;2023-03-23T12:46:13;15.70;99.90
18717;DHT22;9487;50.892;6.906;2023-03-23T12:48:46;15.70;99.90
18717;DHT22;9487;50.892;6.906;2023-03-23T12:51:21;15.80;99.90
18717;DHT22;9487;50.892;6.906;2023-03-23T12:53:57;15.70;99.90
18717;DHT22;9487;50.892;6.906;2023-03-23T12:56:29;15.70;99.90
18717;DHT22;9487;50.892;6.906;2023-03-23T12:59:12;15.70;99.90
18717;DHT22;9487;50.892;6.906;2023-03-23T13:01:44;15.80;99.90
18717;DHT22;9487;50.892;6.906;2023-03-23T13:04:15;15.80;99.90
18717;DHT22;9487;50.892;6.906;2023-03-23T13:06:45;15.90;99.90
18717;DHT22;9487;50.892;6.906;2023-03-23T13:09:17;15.90;99.90
18717;DHT22;9487;50.892;6.906;2023-03-23T13:11:47;16.00;99.90
18717;DHT22;9487;50.892;6.906;2023-03-23T13:14:31;16.00;99.90
18717;DHT22;9487;50.892;6.906;2023-03-23T13:17:16;15.90;99.90
18717;DHT22;9487;50.892;6.906;2023-03-23T13:20:14;15.90;99.90
18717;DHT22;9487;50.892;6.906;2023-03-23T13:22:47;16.00;99.90
18717;DHT22;9487;50.892;6.906;2023-03-23T13:25:19;15.90;99.90
18717;DHT22;9487;50.892;6.906;2023-03-23T13:27:58;15.80;99.90
18717;DHT22;9487;50.892;6.906;2023-03-23T13:30:28;15.70;99.90
18717;DHT22;9487;50.892;6.906;2023-03-23T13:33:04;15.70;99.90
18717;DHT22;9487;50.892;6.906;2023-03-23T13:35:37;15.70;99.90
18717;DHT22;9487;50.892;6.906;2023-03-23T13:38:13;15.70;99.90
18717;DHT22;9487;50.892;6.906;2023-03-23T13:40:44;15.60;99.90
18717;DHT22;9487;50.892;6.906;2023-03-23T13:43:12;15.60;99.90
18717;DHT22;9487;50.892;6.906;2023-03-23T13:45:44;15.60;99.90
18717;DHT22;9487;50.892;6.906;2023-03-23T13:48:22;15.70;99.90
18717;DHT22;9487;50.892;6.906;2023-03-23T13:50:53;15.80;99.90
18717;DHT22;9487;50.892;6.906;2023-03-23T13:53:24;15.90;99.90
18717;DHT22;9487;50.892;6.906;2023-03-23T13:56:06;16.10;99.90
18717;DHT22;9487;50.892;6.906;2023-03-23T13:58:44;16.20;99.90
18717;DHT22;9487;50.892;6.906;2023-03-23T14:01:15;16.30;99.90
18717;DHT22;9487;50.892;6.906;2023-03-23T14:03:46;16.20;99.90
18717;DHT22;9487;50.892;6.906;2023-03-23T14:06:18;16.20;99.90
18717;DHT22;9487;50.892;6.906;2023-03-23T14:08:48;16.20;99.90
18717;DHT22;9487;50.892;6.906;2023-03-23T14:11:19;16.20;99.90
18717;DHT22;9487;50.892;6.906;2023-03-23T14:13:57;16.30;99.90
18717;DHT22;9487;50.892;6.906;2023-03-23T14:16:28;16.20;99.90
18717;DHT22;9487;50.892;6.906;2023-03-23T14:19:00;16.30;99.90
18717;DHT22;9487;50.892;6.906;2023-03-23T14:21:33;16.30;99.90
18717;DHT22;9487;50.892;6.906;2023-03-23T14:24:08;16.20;99.90
18717;DHT22;9487;50.892;6.906;2023-03-23T14:26:36;16.10;99.90
18717;DHT22;9487;50.892;6.906;2023-03-23T14:29:05;16.10;99.90
18717;DHT22;9487;50.892;6.906;2023-03-23T14:31:32;16.10;99.90
18717;DHT22;9487;50.892;6.906;2023-03-23T14:34:04;16.10;99.90
18717;DHT22;9487;50.892;6.906;2023-03-23T14:36:39;16.20;99.90
18717;DHT22;9487;50.892;6.906;2023-03-23T14:39:14;16.10;99.90
18717;DHT22;9487;50.892;6.906;2023-03-23T14:41:43;16.10;99.90
18717;DHT22;9487;50.892;6.906;2023-03-23T14:44:14;16.00;99.90
18717;DHT22;9487;50.892;6.906;2023-03-23T14:46:42;16.00;99.90
18717;DHT22;9487;50.892;6.906;2023-03-23T14:49:13;16.00;99.90
18717;DHT22;9487;50.892;6.906;2023-03-23T14:51:47;15.90;99.90
18717;DHT22;9487;50.892;6.906;2023-03-23T14:54:14;15.90;99.90
18717;DHT22;9487;50.892;6.906;2023-03-23T14:56:41;15.80;99.90
18717;DHT22;9487;50.892;6.906;2023-03-23T14:59:10;15.90;99.90
18717;DHT22;9487;50.892;6.906;2023-03-23T15:01:39;16.00;99.90
18717;DHT22;9487;50.892;6.906;2023-03-23T15:04:12;16.10;99.90
18717;DHT22;9487;50.892;6.906;2023-03-23T15:06:48;16.20;99.90
18717;DHT22;9487;50.892;6.906;2023-03-23T15:09:17;16.20;99.90
18717;DHT22;9487;50.892;6.906;2023-03-23T15:11:52;16.30;99.90
18717;DHT22;9487;50.892;6.906;2023-03-23T15:14:22;16.40;99.90
18717;DHT22;9487;50.892;6.906;2023-03-23T15:16:50;16.60;99.90
18717;DHT22;9487;50.892;6.906;2023-03-23T15:19:22;16.70;99.90
18717;DHT22;9487;50.892;6.906;2023-03-23T15:21:52;16.90;99.90
18717;DHT22;9487;50.892;6.906;2023-03-23T15:24:31;17.00;99.90
18717;DHT22;9487;50.892;6.906;2023-03-23T15:27:16;17.10;99.90
18717;DHT22;9487;50.892;6.906;2023-03-23T15:29:47;17.10;99.90
18717;DHT22;9487;50.892;6.906;2023-03-23T15:32:24;17.00;99.90
18717;DHT22;9487;50.892;6.906;2023-03-23T15:34:53;16.90;99.90
18717;DHT22;9487;50.892;6.906;2023-03-23T15:37:24;16.80;99.90
18717;DHT22;9487;50.892;6.906;2023-03-23T15:39:52;16.60;99.90
18717;DHT22;9487;50.892;6.906;2023-03-23T15:42:22;16.50;99.90
18717;DHT22;9487;50.892;6.906;2023-03-23T15:44:58;16.50;99.90
18717;DHT22;9487;50.892;6.906;2023-03-23T15:47:35;16.50;99.90
18717;DHT22;9487;50.892;6.906;2023-03-23T15:50:11;16.60;99.90
18717;DHT22;9487;50.892;6.906;2023-03-23T15:52:38;16.70;99.90
18717;DHT22;9487;50.892;6.906;2023-03-23T15:55:21;16.70;99.90
18717;DHT22;9487;50.892;6.906;2023-03-23T15:57:49;16.70;99.90
18717;DHT22;9487;50.892;6.906;2023-03-23T16:00:17;16.70;99.90
18717;DHT22;9487;50.892;6.906;2023-03-23T16:02:45;16.80;99.90
18717;DHT22;9487;50.892;6.906;2023-03-23T16:05:14;16.80;99.90
18717;DHT22;9487;50.892;6.906;2023-03-23T16:07:41;16.80;99.90
18717;DHT22;9487;50.892;6.906;2023-03-23T16:10:15;16.90;99.90
18717;DHT22;9487;50.892;6.906;2023-03-23T16:12:42;16.90;99.90
18717;DHT22;9487;50.892;6.906;2023-03-23T16:15:08;17.00;99.90